sensor_id;sensor_type;location;lat;lon;timestamp;temperature;humidity
10263;DHT22;5177;50.068;8.156;2023-02-12T00:02:12;6.50;99.90
10263;DHT22;5177;50.068;8.156;2023-02-12T00:04:37;6.40;99.90
10263;DHT22;5177;50.068;8.156;2023-02-12T00:07:03;6.40;99.90
10263;DHT22;5177;50.068;8.156;2023-02-12T00:09:28;6.40;99.90
10263;DHT22;5177;50.068;8.156;2023-02-12T00:11:54;6.40;99.90
10263;DHT22;5177;50.068;8.156;2023-02-12T00:14:19;6.40;99.90
10263;DHT22;5177;50.068;8.156;2023-02-12T00:16:45;6.40;99.90
10263;DHT22;5177;50.068;8.156;2023-02-12T00:19:10;6.40;99.90
10263;DHT22;5177;50.068;8.156;2023-02-12T00:21:36;6.40;99.90
10263;DHT22;5177;50.068;8.156;2023-02-12T00:24:02;6.40;99.90
10263;DHT22;5177;50.068;8.156;2023-02-12T00:26:27;6.40;99.90
10263;DHT22;5177;50.068;8.156;2023-02-12T00:28:53;6.40;99.90
10263;DHT22;5177;50.068;8.156;2023-02-12T00:31:20;6.40;99.90
10263;DHT22;5177;50.068;8.156;2023-02-12T00:33:45;6.40;99.90
10263;DHT22;5177;50.068;8.156;2023-02-12T00:36:13;6.40;99.90
10263;DHT22;5177;50.068;8.156;2023-02-12T00:38:38;6.40;99.90
10263;DHT22;5177;50.068;8.156;2023-02-12T00:41:04;6.40;99.90
10263;DHT22;5177;50.068;8.156;2023-02-12T00:43:30;6.30;99.90
10263;DHT22;5177;50.068;8.156;2023-02-12T00:45:55;6.30;99.90
10263;DHT22;5177;50.068;8.156;2023-02-12T00:48:21;6.30;99.90
10263;DHT22;5177;50.068;8.156;2023-02-12T00:50:47;6.30;99.90
10263;DHT22;5177;50.068;8.156;2023-02-12T00:53:14;6.30;99.90
10263;DHT22;5177;50.068;8.156;2023-02-12T00:55:39;6.20;99.90
10263;DHT22;5177;50.068;8.156;2023-02-12T00:58:05;6.30;99.90
10263;DHT22;5177;50.068;8.156;2023-02-12T01:00:30;6.30;99.90
10263;DHT22;5177;50.068;8.156;2023-02-12T01:02:56;6.30;99.90
10263;DHT22;5177;50.068;8.156;2023-02-12T01:05:21;6.30;99.90
10263;DHT22;5177;50.068;8.156;2023-02-12T01:07:50;6.30;99.90
10263;DHT22;5177;50.068;8.156;2023-02-12T01:10:16;6.30;99.90
10263;DHT22;5177;50.068;8.156;2023-02-12T01:12:42;6.30;99.90
10263;DHT22;5177;50.068;8.156;2023-02-12T01:15:07;6.30;99.90
10263;DHT22;5177;50.068;8.156;2023-02-12T01:17:34;6.30;99.90
10263;DHT22;5177;50.068;8.156;2023-02-12T01:20:00;6.30;99.90
10263;DHT22;5177;50.068;8.156;2023-02-12T01:22:26;6.30;99.90
10263;DHT22;5177;50.068;8.156;2023-02-12T01:24:51;6.30;99.90
10263;DHT22;5177;50.068;8.156;2023-02-12T01:27:17;6.30;99.90
10263;DHT22;5177;50.068;8.156;2023-02-12T01:29:44;6.30;99.90
10263;DHT22;5177;50.068;8.156;2023-02-12T01:32:10;6.30;99.90
10263;DHT22;5177;50.068;8.156;2023-02-12T01:34:36;6.30;99.90
10263;DHT22;5177;50.068;8.156;2023-02-12T01:37:01;6.30;99.90
10263;DHT22;5177;50.068;8.156;2023-02-12T01:39:27;6.30;99.90
10263;DHT22;5177;50.068;8.156;2023-02-12T01:41:53;6.30;99.90
10263;DHT22;5177;50.068;8.156;2023-02-12T01:46:46;6.30;99.90
10263;DHT22;5177;50.068;8.156;2023-02-12T01:49:16;6.30;99.90
10263;DHT22;5177;50.068;8.156;2023-02-12T01:51:42;6.30;99.90
10263;DHT22;5177;50.068;8.156;2023-02-12T01:54:10;6.40;99.90
10263;DHT22;5177;50.068;8.156;2023-02-12T01:56:36;6.40;99.90
10263;DHT22;5177;50.068;8.156;2023-02-12T01:59:02;6.30;99.90
10263;DHT22;5177;50.068;8.156;2023-02-12T02:01:28;6.40;99.90
10263;DHT22;5177;50.068;8.156;2023-02-12T02:03:56;6.40;99.90
10263;DHT22;5177;50.068;8.156;2023-02-12T02:06:28;6.40;99.90
10263;DHT22;5177;50.068;8.156;2023-02-12T02:08:55;6.40;99.90
10263;DHT22;5177;50.068;8.156;2023-02-12T02:11:22;6.50;99.90
10263;DHT22;5177;50.068;8.156;2023-02-12T02:14:06;6.40;99.90
10263;DHT22;5177;50.068;8.156;2023-02-12T02:27:45;6.40;99.90
10263;DHT22;5177;50.068;8.156;2023-02-12T02:37:47;6.40;99.90
10263;DHT22;5177;50.068;8.156;2023-02-12T02:40:15;6.40;99.90
10263;DHT22;5177;50.068;8.156;2023-02-12T02:43:01;6.40;99.90
10263;DHT22;5177;50.068;8.156;2023-02-12T02:48:01;6.40;99.90
10263;DHT22;5177;50.068;8.156;2023-02-12T02:50:28;6.40;99.90
10263;DHT22;5177;50.068;8.156;2023-02-12T02:53:17;6.40;99.90
10263;DHT22;5177;50.068;8.156;2023-02-12T02:55:45;6.40;99.90
10263;DHT22;5177;50.068;8.156;2023-02-12T03:01:11;6.40;99.90
10263;DHT22;5177;50.068;8.156;2023-02-12T03:03:40;6.30;99.90
10263;DHT22;5177;50.068;8.156;2023-02-12T03:06:09;6.30;99.90
10263;DHT22;5177;50.068;8.156;2023-02-12T03:08:40;6.30;99.90
10263;DHT22;5177;50.068;8.156;2023-02-12T03:11:25;6.30;99.90
10263;DHT22;5177;50.068;8.156;2023-02-12T03:14:14;6.30;99.90
10263;DHT22;5177;50.068;8.156;2023-02-12T03:16:44;6.30;99.90
10263;DHT22;5177;50.068;8.156;2023-02-12T03:19:16;6.30;99.90
10263;DHT22;5177;50.068;8.156;2023-02-12T03:21:51;6.30;99.90
10263;DHT22;5177;50.068;8.156;2023-02-12T03:24:35;6.30;99.90
10263;DHT22;5177;50.068;8.156;2023-02-12T03:27:06;6.30;99.90
10263;DHT22;5177;50.068;8.156;2023-02-12T03:29:33;6.30;99.90
10263;DHT22;5177;50.068;8.156;2023-02-12T03:42:29;6.30;99.90
10263;DHT22;5177;50.068;8.156;2023-02-12T03:44:58;6.30;99.90
10263;DHT22;5177;50.068;8.156;2023-02-12T03:50:12;6.30;99.90
10263;DHT22;5177;50.068;8.156;2023-02-12T03:52:39;6.30;99.90
10263;DHT22;5177;50.068;8.156;2023-02-12T03:55:05;6.30;99.90
10263;DHT22;5177;50.068;8.156;2023-02-12T03:57:32;6.30;99.90
10263;DHT22;5177;50.068;8.156;2023-02-12T04:00:32;6.30;99.90
10263;DHT22;5177;50.068;8.156;2023-02-12T04:02:51;6.30;99.90
10263;DHT22;5177;50.068;8.156;2023-02-12T04:05:19;6.30;99.90
10263;DHT22;5177;50.068;8.156;2023-02-12T04:07:45;6.30;99.90
10263;DHT22;5177;50.068;8.156;2023-02-12T04:10:11;6.40;99.90
10263;DHT22;5177;50.068;8.156;2023-02-12T04:25:45;6.30;99.90
10263;DHT22;5177;50.068;8.156;2023-02-12T04:30:46;6.30;99.90
10263;DHT22;5177;50.068;8.156;2023-02-12T04:33:14;6.30;99.90
10263;DHT22;5177;50.068;8.156;2023-02-12T04:35:45;6.30;99.90
10263;DHT22;5177;50.068;8.156;2023-02-12T04:38:15;6.30;99.90
10263;DHT22;5177;50.068;8.156;2023-02-12T04:40:41;6.30;99.90
10263;DHT22;5177;50.068;8.156;2023-02-12T04:43:07;6.30;99.90
10263;DHT22;5177;50.068;8.156;2023-02-12T04:45:33;6.40;99.90
10263;DHT22;5177;50.068;8.156;2023-02-12T04:48:00;6.30;99.90
10263;DHT22;5177;50.068;8.156;2023-02-12T04:50:26;6.30;99.90
10263;DHT22;5177;50.068;8.156;2023-02-12T04:52:53;6.30;99.90
10263;DHT22;5177;50.068;8.156;2023-02-12T04:55:18;6.30;99.90
10263;DHT22;5177;50.068;8.156;2023-02-12T04:57:44;6.30;99.90
10263;DHT22;5177;50.068;8.156;2023-02-12T05:00:11;6.30;99.90
10263;DHT22;5177;50.068;8.156;2023-02-12T05:02:37;6.30;99.90
10263;DHT22;5177;50.068;8.156;2023-02-12T05:05:03;6.30;99.90
10263;DHT22;5177;50.068;8.156;2023-02-12T05:07:28;6.30;99.90
10263;DHT22;5177;50.068;8.156;2023-02-12T05:09:54;6.30;99.90
10263;DHT22;5177;50.068;8.156;2023-02-12T05:12:19;6.20;99.90
10263;DHT22;5177;50.068;8.156;2023-02-12T05:14:45;6.20;99.90
10263;DHT22;5177;50.068;8.156;2023-02-12T05:17:10;6.30;99.90
10263;DHT22;5177;50.068;8.156;2023-02-12T05:19:35;6.30;99.90
10263;DHT22;5177;50.068;8.156;2023-02-12T05:22:01;6.30;99.90
10263;DHT22;5177;50.068;8.156;2023-02-12T05:24:26;6.30;99.90
10263;DHT22;5177;50.068;8.156;2023-02-12T05:26:52;6.30;99.90
10263;DHT22;5177;50.068;8.156;2023-02-12T05:29:17;6.20;99.90
10263;DHT22;5177;50.068;8.156;2023-02-12T05:31:43;6.30;99.90
10263;DHT22;5177;50.068;8.156;2023-02-12T05:34:10;6.30;99.90
10263;DHT22;5177;50.068;8.156;2023-02-12T05:36:35;6.30;99.90
10263;DHT22;5177;50.068;8.156;2023-02-12T05:39:01;6.30;99.90
10263;DHT22;5177;50.068;8.156;2023-02-12T05:41:27;6.30;99.90
10263;DHT22;5177;50.068;8.156;2023-02-12T05:43:52;6.30;99.90
10263;DHT22;5177;50.068;8.156;2023-02-12T05:46:19;6.30;99.90
10263;DHT22;5177;50.068;8.156;2023-02-12T05:48:44;6.30;99.90
10263;DHT22;5177;50.068;8.156;2023-02-12T05:51:11;6.30;99.90
10263;DHT22;5177;50.068;8.156;2023-02-12T05:53:37;6.30;99.90
10263;DHT22;5177;50.068;8.156;2023-02-12T05:56:17;6.30;99.90
10263;DHT22;5177;50.068;8.156;2023-02-12T05:58:44;6.20;99.90
10263;DHT22;5177;50.068;8.156;2023-02-12T06:01:11;6.20;99.90
10263;DHT22;5177;50.068;8.156;2023-02-12T06:03:37;6.20;99.90
10263;DHT22;5177;50.068;8.156;2023-02-12T06:06:02;6.20;99.90
10263;DHT22;5177;50.068;8.156;2023-02-12T06:08:28;6.20;99.90
10263;DHT22;5177;50.068;8.156;2023-02-12T06:10:53;6.20;99.90
10263;DHT22;5177;50.068;8.156;2023-02-12T06:13:19;6.20;99.90
10263;DHT22;5177;50.068;8.156;2023-02-12T06:15:44;6.20;99.90
10263;DHT22;5177;50.068;8.156;2023-02-12T06:18:10;6.20;99.90
10263;DHT22;5177;50.068;8.156;2023-02-12T06:20:37;6.20;99.90
10263;DHT22;5177;50.068;8.156;2023-02-12T06:23:02;6.10;99.90
10263;DHT22;5177;50.068;8.156;2023-02-12T06:25:28;6.10;99.90
10263;DHT22;5177;50.068;8.156;2023-02-12T06:27:53;6.20;99.90
10263;DHT22;5177;50.068;8.156;2023-02-12T06:30:19;6.20;99.90
10263;DHT22;5177;50.068;8.156;2023-02-12T06:32:47;6.10;99.90
10263;DHT22;5177;50.068;8.156;2023-02-12T06:35:13;6.10;99.90
10263;DHT22;5177;50.068;8.156;2023-02-12T06:37:38;6.20;99.90
10263;DHT22;5177;50.068;8.156;2023-02-12T06:40:04;6.20;99.90
10263;DHT22;5177;50.068;8.156;2023-02-12T06:42:30;6.20;99.90
10263;DHT22;5177;50.068;8.156;2023-02-12T06:44:55;6.20;99.90
10263;DHT22;5177;50.068;8.156;2023-02-12T06:47:21;6.20;99.90
10263;DHT22;5177;50.068;8.156;2023-02-12T06:49:46;6.20;99.90
10263;DHT22;5177;50.068;8.156;2023-02-12T06:52:12;6.20;99.90
10263;DHT22;5177;50.068;8.156;2023-02-12T06:54:38;6.20;99.90
10263;DHT22;5177;50.068;8.156;2023-02-12T06:57:04;6.20;99.90
10263;DHT22;5177;50.068;8.156;2023-02-12T06:59:29;6.20;99.90
10263;DHT22;5177;50.068;8.156;2023-02-12T07:01:55;6.20;99.90
10263;DHT22;5177;50.068;8.156;2023-02-12T07:04:20;6.30;99.90
10263;DHT22;5177;50.068;8.156;2023-02-12T07:06:46;6.20;99.90
10263;DHT22;5177;50.068;8.156;2023-02-12T07:09:12;6.20;99.90
10263;DHT22;5177;50.068;8.156;2023-02-12T07:11:37;6.20;99.90
10263;DHT22;5177;50.068;8.156;2023-02-12T07:14:05;6.20;99.90
10263;DHT22;5177;50.068;8.156;2023-02-12T07:16:30;6.20;99.90
10263;DHT22;5177;50.068;8.156;2023-02-12T07:18:56;6.20;99.90
10263;DHT22;5177;50.068;8.156;2023-02-12T07:21:22;6.30;99.90
10263;DHT22;5177;50.068;8.156;2023-02-12T07:23:48;6.30;99.90
10263;DHT22;5177;50.068;8.156;2023-02-12T07:26:14;6.30;99.90
10263;DHT22;5177;50.068;8.156;2023-02-12T07:28:40;6.30;99.90
10263;DHT22;5177;50.068;8.156;2023-02-12T07:31:13;6.40;99.90
10263;DHT22;5177;50.068;8.156;2023-02-12T07:33:39;6.40;99.90
10263;DHT22;5177;50.068;8.156;2023-02-12T07:36:08;6.40;99.90
10263;DHT22;5177;50.068;8.156;2023-02-12T07:38:35;6.40;99.90
10263;DHT22;5177;50.068;8.156;2023-02-12T07:43:36;6.40;99.90
10263;DHT22;5177;50.068;8.156;2023-02-12T07:46:09;6.40;99.90
10263;DHT22;5177;50.068;8.156;2023-02-12T07:48:35;6.40;99.90
10263;DHT22;5177;50.068;8.156;2023-02-12T07:51:05;6.50;99.90
10263;DHT22;5177;50.068;8.156;2023-02-12T07:53:31;6.50;99.90
10263;DHT22;5177;50.068;8.156;2023-02-12T07:56:03;6.50;99.90
10263;DHT22;5177;50.068;8.156;2023-02-12T07:58:29;6.60;99.90
10263;DHT22;5177;50.068;8.156;2023-02-12T08:00:54;6.60;99.90
10263;DHT22;5177;50.068;8.156;2023-02-12T08:03:19;6.60;99.90
10263;DHT22;5177;50.068;8.156;2023-02-12T08:05:45;6.60;99.90
10263;DHT22;5177;50.068;8.156;2023-02-12T08:08:10;6.70;99.90
10263;DHT22;5177;50.068;8.156;2023-02-12T08:10:36;6.70;99.90
10263;DHT22;5177;50.068;8.156;2023-02-12T08:13:01;6.70;99.90
10263;DHT22;5177;50.068;8.156;2023-02-12T08:15:27;6.80;99.90
10263;DHT22;5177;50.068;8.156;2023-02-12T08:17:52;6.90;99.90
10263;DHT22;5177;50.068;8.156;2023-02-12T08:20:19;6.90;99.90
10263;DHT22;5177;50.068;8.156;2023-02-12T08:22:45;7.00;99.90
10263;DHT22;5177;50.068;8.156;2023-02-12T08:25:10;7.00;99.90
10263;DHT22;5177;50.068;8.156;2023-02-12T08:27:36;7.00;99.90
10263;DHT22;5177;50.068;8.156;2023-02-12T08:30:02;7.10;99.90
10263;DHT22;5177;50.068;8.156;2023-02-12T08:32:27;7.10;99.90
10263;DHT22;5177;50.068;8.156;2023-02-12T08:34:53;7.20;99.90
10263;DHT22;5177;50.068;8.156;2023-02-12T08:37:19;7.30;99.90
10263;DHT22;5177;50.068;8.156;2023-02-12T08:39:44;7.30;99.90
10263;DHT22;5177;50.068;8.156;2023-02-12T08:42:10;7.40;99.90
10263;DHT22;5177;50.068;8.156;2023-02-12T08:44:35;7.40;99.90
10263;DHT22;5177;50.068;8.156;2023-02-12T08:47:01;7.40;99.90
10263;DHT22;5177;50.068;8.156;2023-02-12T08:49:27;7.50;99.90
10263;DHT22;5177;50.068;8.156;2023-02-12T08:51:54;7.50;99.90
10263;DHT22;5177;50.068;8.156;2023-02-12T08:54:25;7.60;99.90
10263;DHT22;5177;50.068;8.156;2023-02-12T08:56:57;7.70;99.90
10263;DHT22;5177;50.068;8.156;2023-02-12T08:59:23;7.70;99.90
10263;DHT22;5177;50.068;8.156;2023-02-12T09:01:49;7.80;99.90
10263;DHT22;5177;50.068;8.156;2023-02-12T09:04:16;7.90;99.90
10263;DHT22;5177;50.068;8.156;2023-02-12T09:06:42;7.80;99.90
10263;DHT22;5177;50.068;8.156;2023-02-12T09:09:08;7.90;99.90
10263;DHT22;5177;50.068;8.156;2023-02-12T09:11:33;7.80;99.90
10263;DHT22;5177;50.068;8.156;2023-02-12T09:14:00;7.80;99.90
10263;DHT22;5177;50.068;8.156;2023-02-12T09:16:27;8.00;99.90
10263;DHT22;5177;50.068;8.156;2023-02-12T09:18:52;7.90;99.90
10263;DHT22;5177;50.068;8.156;2023-02-12T09:21:19;7.90;99.90
10263;DHT22;5177;50.068;8.156;2023-02-12T09:23:45;7.90;99.90
10263;DHT22;5177;50.068;8.156;2023-02-12T09:26:12;8.00;99.90
10263;DHT22;5177;50.068;8.156;2023-02-12T09:28:39;8.10;99.90
10263;DHT22;5177;50.068;8.156;2023-02-12T09:31:05;8.20;99.90
10263;DHT22;5177;50.068;8.156;2023-02-12T09:33:31;8.20;99.90
10263;DHT22;5177;50.068;8.156;2023-02-12T09:36:00;8.30;99.90
10263;DHT22;5177;50.068;8.156;2023-02-12T09:38:25;8.30;99.90
10263;DHT22;5177;50.068;8.156;2023-02-12T09:43:35;8.50;99.90
10263;DHT22;5177;50.068;8.156;2023-02-12T09:51:05;8.70;99.90
10263;DHT22;5177;50.068;8.156;2023-02-12T09:53:33;8.70;99.90
10263;DHT22;5177;50.068;8.156;2023-02-12T09:55:59;8.80;99.90
10263;DHT22;5177;50.068;8.156;2023-02-12T09:58:38;8.90;99.90
10263;DHT22;5177;50.068;8.156;2023-02-12T10:01:11;8.90;99.90
10263;DHT22;5177;50.068;8.156;2023-02-12T10:03:38;9.00;99.90
10263;DHT22;5177;50.068;8.156;2023-02-12T10:06:04;9.10;99.90
10263;DHT22;5177;50.068;8.156;2023-02-12T10:08:38;9.10;99.90
10263;DHT22;5177;50.068;8.156;2023-02-12T10:11:12;9.10;99.90
10263;DHT22;5177;50.068;8.156;2023-02-12T10:19:00;9.00;99.90
10263;DHT22;5177;50.068;8.156;2023-02-12T10:21:32;9.00;99.90
10263;DHT22;5177;50.068;8.156;2023-02-12T10:26:37;8.90;99.90
10263;DHT22;5177;50.068;8.156;2023-02-12T10:29:16;8.90;99.90
10263;DHT22;5177;50.068;8.156;2023-02-12T10:31:43;8.90;99.90
10263;DHT22;5177;50.068;8.156;2023-02-12T10:34:55;8.90;99.90
10263;DHT22;5177;50.068;8.156;2023-02-12T10:36:57;9.00;99.90
10263;DHT22;5177;50.068;8.156;2023-02-12T10:39:34;8.90;99.90
10263;DHT22;5177;50.068;8.156;2023-02-12T10:42:01;8.90;99.90
10263;DHT22;5177;50.068;8.156;2023-02-12T10:44:28;9.00;99.90
10263;DHT22;5177;50.068;8.156;2023-02-12T10:46:54;8.90;99.90
10263;DHT22;5177;50.068;8.156;2023-02-12T10:49:20;8.90;99.90
10263;DHT22;5177;50.068;8.156;2023-02-12T10:52:02;8.90;99.90
10263;DHT22;5177;50.068;8.156;2023-02-12T10:54:37;8.90;99.90
10263;DHT22;5177;50.068;8.156;2023-02-12T10:59:48;9.00;99.90
10263;DHT22;5177;50.068;8.156;2023-02-12T11:02:22;9.10;99.90
10263;DHT22;5177;50.068;8.156;2023-02-12T11:04:49;9.10;99.90
10263;DHT22;5177;50.068;8.156;2023-02-12T11:07:15;9.20;99.90
10263;DHT22;5177;50.068;8.156;2023-02-12T11:09:42;9.30;99.90
10263;DHT22;5177;50.068;8.156;2023-02-12T11:12:16;9.40;99.90
10263;DHT22;5177;50.068;8.156;2023-02-12T11:14:47;9.40;99.90
10263;DHT22;5177;50.068;8.156;2023-02-12T11:17:17;9.40;99.90
10263;DHT22;5177;50.068;8.156;2023-02-12T11:19:44;9.40;99.90
10263;DHT22;5177;50.068;8.156;2023-02-12T11:22:10;9.50;99.90
10263;DHT22;5177;50.068;8.156;2023-02-12T11:24:38;9.50;99.90
10263;DHT22;5177;50.068;8.156;2023-02-12T11:27:24;9.50;99.90
10263;DHT22;5177;50.068;8.156;2023-02-12T11:32:35;9.50;99.90
10263;DHT22;5177;50.068;8.156;2023-02-12T11:35:04;9.60;99.90
10263;DHT22;5177;50.068;8.156;2023-02-12T11:37:31;9.60;99.90
10263;DHT22;5177;50.068;8.156;2023-02-12T11:39:57;9.60;99.90
10263;DHT22;5177;50.068;8.156;2023-02-12T11:42:24;9.60;99.90
10263;DHT22;5177;50.068;8.156;2023-02-12T11:44:53;9.60;99.90
10263;DHT22;5177;50.068;8.156;2023-02-12T11:47:21;9.70;99.90
10263;DHT22;5177;50.068;8.156;2023-02-12T11:52:20;9.80;99.90
10263;DHT22;5177;50.068;8.156;2023-02-12T11:54:46;10.00;99.90
10263;DHT22;5177;50.068;8.156;2023-02-12T11:59:56;10.10;99.90
10263;DHT22;5177;50.068;8.156;2023-02-12T12:02:25;10.10;99.90
10263;DHT22;5177;50.068;8.156;2023-02-12T12:04:55;10.20;99.90
10263;DHT22;5177;50.068;8.156;2023-02-12T12:07:30;10.20;99.90
10263;DHT22;5177;50.068;8.156;2023-02-12T12:09:59;10.30;99.90
10263;DHT22;5177;50.068;8.156;2023-02-12T12:12:30;10.30;99.90
10263;DHT22;5177;50.068;8.156;2023-02-12T12:15:01;10.50;99.90
10263;DHT22;5177;50.068;8.156;2023-02-12T12:17:55;10.50;99.90
10263;DHT22;5177;50.068;8.156;2023-02-12T12:20:55;10.60;99.90
10263;DHT22;5177;50.068;8.156;2023-02-12T12:23:33;10.60;99.90
10263;DHT22;5177;50.068;8.156;2023-02-12T12:26:03;10.60;99.90
10263;DHT22;5177;50.068;8.156;2023-02-12T12:31:07;10.70;99.90
10263;DHT22;5177;50.068;8.156;2023-02-12T12:33:59;10.70;99.90
10263;DHT22;5177;50.068;8.156;2023-02-12T12:39:25;10.60;99.90
10263;DHT22;5177;50.068;8.156;2023-02-12T12:47:25;10.70;99.90
10263;DHT22;5177;50.068;8.156;2023-02-12T12:55:22;10.70;99.90
10263;DHT22;5177;50.068;8.156;2023-02-12T13:03:00;10.80;99.90
10263;DHT22;5177;50.068;8.156;2023-02-12T13:10:47;10.80;99.90
10263;DHT22;5177;50.068;8.156;2023-02-12T13:13:19;10.80;99.90
10263;DHT22;5177;50.068;8.156;2023-02-12T13:21:03;10.70;99.90
10263;DHT22;5177;50.068;8.156;2023-02-12T13:23:40;10.70;99.90
10263;DHT22;5177;50.068;8.156;2023-02-12T13:29:04;10.60;99.90
10263;DHT22;5177;50.068;8.156;2023-02-12T13:31:32;10.70;99.90
10263;DHT22;5177;50.068;8.156;2023-02-12T13:34:01;10.70;99.90
10263;DHT22;5177;50.068;8.156;2023-02-12T13:36:28;10.60;99.90
10263;DHT22;5177;50.068;8.156;2023-02-12T13:41:38;10.60;99.90
10263;DHT22;5177;50.068;8.156;2023-02-12T13:44:11;10.60;99.90
10263;DHT22;5177;50.068;8.156;2023-02-12T13:46:40;10.60;99.90
10263;DHT22;5177;50.068;8.156;2023-02-12T13:49:12;10.50;99.90
10263;DHT22;5177;50.068;8.156;2023-02-12T13:54:16;10.50;99.90
10263;DHT22;5177;50.068;8.156;2023-02-12T13:56:44;10.60;99.90
10263;DHT22;5177;50.068;8.156;2023-02-12T14:01:54;10.50;99.90
10263;DHT22;5177;50.068;8.156;2023-02-12T14:07:18;10.60;99.90
10263;DHT22;5177;50.068;8.156;2023-02-12T14:12:03;10.50;99.90
10263;DHT22;5177;50.068;8.156;2023-02-12T14:14:33;10.50;99.90
10263;DHT22;5177;50.068;8.156;2023-02-12T14:24:51;10.40;99.90
10263;DHT22;5177;50.068;8.156;2023-02-12T14:30:01;10.30;99.90
10263;DHT22;5177;50.068;8.156;2023-02-12T14:37:56;10.30;99.90
10263;DHT22;5177;50.068;8.156;2023-02-12T14:45:54;10.10;99.90
10263;DHT22;5177;50.068;8.156;2023-02-12T14:51:04;10.20;99.90
10263;DHT22;5177;50.068;8.156;2023-02-12T14:53:30;10.20;99.90
10263;DHT22;5177;50.068;8.156;2023-02-12T14:55:57;10.10;99.90
10263;DHT22;5177;50.068;8.156;2023-02-12T14:58:23;10.10;99.90
10263;DHT22;5177;50.068;8.156;2023-02-12T15:00:50;10.20;99.90
10263;DHT22;5177;50.068;8.156;2023-02-12T15:03:18;10.20;99.90
10263;DHT22;5177;50.068;8.156;2023-02-12T15:10:54;10.10;99.90
10263;DHT22;5177;50.068;8.156;2023-02-12T15:13:26;10.20;99.90
10263;DHT22;5177;50.068;8.156;2023-02-12T15:15:58;10.20;99.90
10263;DHT22;5177;50.068;8.156;2023-02-12T15:24:03;10.10;99.90
10263;DHT22;5177;50.068;8.156;2023-02-12T15:26:30;10.10;99.90
10263;DHT22;5177;50.068;8.156;2023-02-12T15:28:56;10.10;99.90
10263;DHT22;5177;50.068;8.156;2023-02-12T15:31:25;10.20;99.90
10263;DHT22;5177;50.068;8.156;2023-02-12T15:33:51;10.20;99.90
10263;DHT22;5177;50.068;8.156;2023-02-12T15:36:23;10.20;99.90
10263;DHT22;5177;50.068;8.156;2023-02-12T15:38:52;10.20;99.90
10263;DHT22;5177;50.068;8.156;2023-02-12T15:41:33;10.10;99.90
10263;DHT22;5177;50.068;8.156;2023-02-12T15:43:59;10.10;99.90
10263;DHT22;5177;50.068;8.156;2023-02-12T15:46:25;10.10;99.90
10263;DHT22;5177;50.068;8.156;2023-02-12T15:48:51;10.10;99.90
10263;DHT22;5177;50.068;8.156;2023-02-12T15:51:25;10.00;99.90
10263;DHT22;5177;50.068;8.156;2023-02-12T15:53:52;10.00;99.90
10263;DHT22;5177;50.068;8.156;2023-02-12T15:56:20;9.90;99.90
10263;DHT22;5177;50.068;8.156;2023-02-12T15:58:48;9.90;99.90
10263;DHT22;5177;50.068;8.156;2023-02-12T16:01:15;9.90;99.90
10263;DHT22;5177;50.068;8.156;2023-02-12T16:03:41;9.80;99.90
10263;DHT22;5177;50.068;8.156;2023-02-12T16:06:10;9.80;99.90
10263;DHT22;5177;50.068;8.156;2023-02-12T16:08:42;9.80;99.90
10263;DHT22;5177;50.068;8.156;2023-02-12T16:11:08;9.70;99.90
10263;DHT22;5177;50.068;8.156;2023-02-12T16:13:41;9.60;99.90
10263;DHT22;5177;50.068;8.156;2023-02-12T16:18:34;9.40;99.90
10263;DHT22;5177;50.068;8.156;2023-02-12T16:21:09;9.30;99.90
10263;DHT22;5177;50.068;8.156;2023-02-12T16:23:36;9.30;99.90
10263;DHT22;5177;50.068;8.156;2023-02-12T16:26:02;9.20;99.90
10263;DHT22;5177;50.068;8.156;2023-02-12T16:28:28;9.10;99.90
10263;DHT22;5177;50.068;8.156;2023-02-12T16:31:07;9.10;99.90
10263;DHT22;5177;50.068;8.156;2023-02-12T16:33:34;9.00;99.90
10263;DHT22;5177;50.068;8.156;2023-02-12T16:41:18;8.70;99.90
10263;DHT22;5177;50.068;8.156;2023-02-12T16:43:45;8.70;99.90
10263;DHT22;5177;50.068;8.156;2023-02-12T16:46:11;8.70;99.90
10263;DHT22;5177;50.068;8.156;2023-02-12T16:48:41;8.70;99.90
10263;DHT22;5177;50.068;8.156;2023-02-12T16:51:19;8.50;99.90
10263;DHT22;5177;50.068;8.156;2023-02-12T16:53:44;8.50;99.90
10263;DHT22;5177;50.068;8.156;2023-02-12T16:56:13;8.40;99.90
10263;DHT22;5177;50.068;8.156;2023-02-12T16:58:40;8.40;99.90
10263;DHT22;5177;50.068;8.156;2023-02-12T17:01:06;8.30;99.90
10263;DHT22;5177;50.068;8.156;2023-02-12T17:03:32;8.30;99.90
10263;DHT22;5177;50.068;8.156;2023-02-12T17:05:57;8.20;99.90
10263;DHT22;5177;50.068;8.156;2023-02-12T17:08:23;8.20;99.90
10263;DHT22;5177;50.068;8.156;2023-02-12T17:10:48;8.00;99.90
10263;DHT22;5177;50.068;8.156;2023-02-12T17:13:16;7.90;99.90
10263;DHT22;5177;50.068;8.156;2023-02-12T17:15:59;7.90;99.90
10263;DHT22;5177;50.068;8.156;2023-02-12T17:18:28;7.80;99.90
10263;DHT22;5177;50.068;8.156;2023-02-12T17:21:07;7.80;99.90
10263;DHT22;5177;50.068;8.156;2023-02-12T17:23:33;7.70;99.90
10263;DHT22;5177;50.068;8.156;2023-02-12T17:25:59;7.70;99.90
10263;DHT22;5177;50.068;8.156;2023-02-12T17:28:24;7.70;99.90
10263;DHT22;5177;50.068;8.156;2023-02-12T17:30:50;7.70;99.90
10263;DHT22;5177;50.068;8.156;2023-02-12T17:33:16;7.60;99.90
10263;DHT22;5177;50.068;8.156;2023-02-12T17:35:42;7.50;99.90
10263;DHT22;5177;50.068;8.156;2023-02-12T17:38:07;7.50;99.90
10263;DHT22;5177;50.068;8.156;2023-02-12T17:40:34;7.50;99.90
10263;DHT22;5177;50.068;8.156;2023-02-12T17:42:59;7.40;99.90
10263;DHT22;5177;50.068;8.156;2023-02-12T17:45:25;7.40;99.90
10263;DHT22;5177;50.068;8.156;2023-02-12T17:47:50;7.30;99.90
10263;DHT22;5177;50.068;8.156;2023-02-12T17:50:16;7.30;99.90
10263;DHT22;5177;50.068;8.156;2023-02-12T17:52:42;7.20;99.90
10263;DHT22;5177;50.068;8.156;2023-02-12T17:55:08;7.20;99.90
10263;DHT22;5177;50.068;8.156;2023-02-12T17:57:35;7.20;99.90
10263;DHT22;5177;50.068;8.156;2023-02-12T18:00:01;7.10;99.90
10263;DHT22;5177;50.068;8.156;2023-02-12T18:02:26;7.10;99.90
10263;DHT22;5177;50.068;8.156;2023-02-12T18:04:52;7.00;99.90
10263;DHT22;5177;50.068;8.156;2023-02-12T18:07:18;7.00;99.90
10263;DHT22;5177;50.068;8.156;2023-02-12T18:09:43;7.00;99.90
10263;DHT22;5177;50.068;8.156;2023-02-12T18:12:09;6.90;99.90
10263;DHT22;5177;50.068;8.156;2023-02-12T18:14:34;6.90;99.90
10263;DHT22;5177;50.068;8.156;2023-02-12T18:17:00;6.90;99.90
10263;DHT22;5177;50.068;8.156;2023-02-12T18:19:26;6.80;99.90
10263;DHT22;5177;50.068;8.156;2023-02-12T18:21:52;6.90;99.90
10263;DHT22;5177;50.068;8.156;2023-02-12T18:24:18;6.80;99.90
10263;DHT22;5177;50.068;8.156;2023-02-12T18:26:43;6.80;99.90
10263;DHT22;5177;50.068;8.156;2023-02-12T18:29:09;6.70;99.90
10263;DHT22;5177;50.068;8.156;2023-02-12T18:31:35;6.70;99.90
10263;DHT22;5177;50.068;8.156;2023-02-12T18:34:01;6.60;99.90
10263;DHT22;5177;50.068;8.156;2023-02-12T18:36:28;6.60;99.90
10263;DHT22;5177;50.068;8.156;2023-02-12T18:38:53;6.60;99.90
10263;DHT22;5177;50.068;8.156;2023-02-12T18:41:21;6.60;99.90
10263;DHT22;5177;50.068;8.156;2023-02-12T18:43:46;6.60;99.90
10263;DHT22;5177;50.068;8.156;2023-02-12T18:46:17;6.50;99.90
10263;DHT22;5177;50.068;8.156;2023-02-12T18:48:43;6.50;99.90
10263;DHT22;5177;50.068;8.156;2023-02-12T18:51:09;6.50;99.90
10263;DHT22;5177;50.068;8.156;2023-02-12T18:53:36;6.40;99.90
10263;DHT22;5177;50.068;8.156;2023-02-12T18:56:05;6.40;99.90
10263;DHT22;5177;50.068;8.156;2023-02-12T18:58:31;6.40;99.90
10263;DHT22;5177;50.068;8.156;2023-02-12T19:00:57;6.40;99.90